Report METAR

 

LIBD - Bari/Palese Macc, Italy
Distance from station: ESE 48km
Dati ricevuti: 03/08/2021 07:50
Cielo sereno o poche nubi
Cielo sereno o poche nubi
 Vento da W
Vento: W 11 km/h
Temperatura: 26°C
P.to Rugiada: 14°C
Umidità: 48%
Pressione: 1016 hPa
Riassunto: Cielo sereno o poche nubi
Visibility: superiore a 10 km
2021/08/03 05:50 LIBD 030550Z 28006KT 250V310 CAVOK 26/14 Q1016
LIBA - Amendola (it-Afb, Italy
Distance from station: WNW 50km
Dati ricevuti: 03/08/2021 07:55
Poco Nuvoloso
Poco Nuvoloso
 Vento da WNW
Vento: WNW 13 km/h
Temperatura: 22°C
P.to Rugiada: 15°C
Umidità: 65%
Pressione: 1016 hPa
Nuvole: Poco Nuvoloso
Visibility: 10 km
Cloud details: Poco Nuvoloso 1524 m
2021/08/03 05:55 LIBA 030555Z 30007KT 9999 FEW050 22/15 Q1016 RMK BKN SCT120 BKN160 VIS MIN 9999 WIND THR11 29006KT WIND THR29 /////KT BLU
LIBF - Foggia/Gino Lisa, Italy
Distance from station: W 63km
Dati ricevuti: 02/08/2021 17:50
DATI Obsoleti
Cielo sereno o poche nubi
Cielo sereno o poche nubi
 Vento da SW
Vento: SW 26 km/h
Temperatura: 35°C
P.to Rugiada: 3°C
Umidità: 13%
Pressione: 1012 hPa
Riassunto: Cielo sereno o poche nubi
Visibility: superiore a 10 km
2021/08/02 15:50 LIBF 021550Z 22014KT CAVOK 35/03 Q1012
 
LIBV - Gioia Del Colle, Italy
Distance from station: SE 82km
Dati ricevuti: 03/08/2021 07:55
Cielo sereno o poche nubi
Cielo sereno o poche nubi
 Vento da NNW
Vento: NNW 13 km/h
Temperatura: 25°C
P.to Rugiada: 13°C
Umidità: 47%
Pressione: 1016 hPa
Riassunto: Cielo sereno o poche nubi
Visibility: superiore a 10 km
2021/08/03 05:55 LIBV 030555Z 33007KT CAVOK 25/13 Q1016 RMK BKN FEW090 SCT170 VIS MIN 9999 WIND THR32 35010KT WIND THR14 33012KT BLU
LIRT - Trevico, Italy
Distance from station: WSW 93km
Dati ricevuti: 03/08/2021 04:55
DATI Obsoleti

 
2021/08/03 02:55 LIRT 030255Z ///09KT CAVOK 18/M01 Q1019 RMK SKC MON INVIS VAL INVIS VIS MIN 9999